sensor_id;sensor_type;location;lat;lon;timestamp;pressure;altitude;pressure_sealevel;temperature;humidity
16190;BME280;41754;51.498;7.540;2023-04-05T00:01:03;101134.81;;;3.38;53.15
16190;BME280;41754;51.498;7.540;2023-04-05T00:03:33;101131.81;;;3.23;54.24
16190;BME280;41754;51.498;7.540;2023-04-05T00:06:02;101129.28;;;3.33;53.61
16190;BME280;41754;51.498;7.540;2023-04-05T00:08:30;101131.34;;;3.14;54.19
16190;BME280;41754;51.498;7.540;2023-04-05T00:10:58;101122.97;;;3.04;55.10
16190;BME280;41754;51.498;7.540;2023-04-05T00:13:28;101120.28;;;2.81;55.29
16190;BME280;41754;51.498;7.540;2023-04-05T00:15:56;101115.31;;;2.89;54.94
16190;BME280;41754;51.498;7.540;2023-04-05T00:18:26;101120.53;;;2.91;54.76
16190;BME280;41754;51.498;7.540;2023-04-05T00:21:00;101126.91;;;2.85;55.99
16190;BME280;41754;51.498;7.540;2023-04-05T00:23:28;101124.53;;;2.88;55.21
16190;BME280;41754;51.498;7.540;2023-04-05T00:26:03;101120.97;;;2.88;56.13
16190;BME280;41754;51.498;7.540;2023-04-05T00:28:33;101117.72;;;2.39;57.27
16190;BME280;41754;51.498;7.540;2023-04-05T00:31:02;101113.00;;;2.35;57.50
16190;BME280;41754;51.498;7.540;2023-04-05T00:33:30;101124.91;;;2.45;57.17
16190;BME280;41754;51.498;7.540;2023-04-05T00:36:07;101111.94;;;2.47;57.42
16190;BME280;41754;51.498;7.540;2023-04-05T00:38:36;101114.53;;;2.54;57.13
16190;BME280;41754;51.498;7.540;2023-04-05T00:41:04;101113.94;;;2.40;57.26
16190;BME280;41754;51.498;7.540;2023-04-05T00:43:33;101115.00;;;2.39;57.46
16190;BME280;41754;51.498;7.540;2023-04-05T00:46:03;101108.50;;;2.28;57.66
16190;BME280;41754;51.498;7.540;2023-04-05T00:48:32;101108.16;;;2.25;58.15
16190;BME280;41754;51.498;7.540;2023-04-05T00:51:00;101108.28;;;2.30;57.83
16190;BME280;41754;51.498;7.540;2023-04-05T00:53:30;101108.63;;;1.98;58.68
16190;BME280;41754;51.498;7.540;2023-04-05T00:55:58;101110.47;;;1.86;60.11
16190;BME280;41754;51.498;7.540;2023-04-05T00:58:27;101108.44;;;1.82;60.63
16190;BME280;41754;51.498;7.540;2023-04-05T01:01:01;101116.06;;;2.03;59.10
16190;BME280;41754;51.498;7.540;2023-04-05T01:03:34;101108.88;;;2.09;58.85
16190;BME280;41754;51.498;7.540;2023-04-05T01:06:15;101108.16;;;2.01;59.00
16190;BME280;41754;51.498;7.540;2023-04-05T01:08:51;101098.91;;;1.79;59.60
16190;BME280;41754;51.498;7.540;2023-04-05T01:11:22;101103.97;;;1.76;59.71
16190;BME280;41754;51.498;7.540;2023-04-05T01:13:57;101099.63;;;1.86;59.43
16190;BME280;41754;51.498;7.540;2023-04-05T01:16:27;101100.81;;;1.90;59.27
16190;BME280;41754;51.498;7.540;2023-04-05T01:18:55;101101.75;;;1.84;59.47
16190;BME280;41754;51.498;7.540;2023-04-05T01:21:42;101104.59;;;1.89;58.67
16190;BME280;41754;51.498;7.540;2023-04-05T01:24:19;101099.47;;;1.81;59.28
16190;BME280;41754;51.498;7.540;2023-04-05T01:26:56;101092.38;;;1.68;59.59
16190;BME280;41754;51.498;7.540;2023-04-05T01:29:46;101093.13;;;1.46;59.90
16190;BME280;41754;51.498;7.540;2023-04-05T01:32:33;101090.44;;;1.46;60.83
16190;BME280;41754;51.498;7.540;2023-04-05T01:35:08;101091.44;;;1.63;60.19
16190;BME280;41754;51.498;7.540;2023-04-05T01:37:38;101093.31;;;1.32;60.59
16190;BME280;41754;51.498;7.540;2023-04-05T01:40:08;101086.53;;;1.41;60.99
16190;BME280;41754;51.498;7.540;2023-04-05T01:42:36;101094.91;;;1.40;60.41
16190;BME280;41754;51.498;7.540;2023-04-05T01:45:09;101094.06;;;1.39;60.82
16190;BME280;41754;51.498;7.540;2023-04-05T01:47:37;101085.97;;;1.21;61.56
16190;BME280;41754;51.498;7.540;2023-04-05T01:50:06;101081.69;;;1.43;60.13
16190;BME280;41754;51.498;7.540;2023-04-05T01:52:34;101084.69;;;1.54;59.92
16190;BME280;41754;51.498;7.540;2023-04-05T01:55:03;101081.03;;;1.48;59.68
16190;BME280;41754;51.498;7.540;2023-04-05T01:57:31;101080.72;;;1.26;60.72
16190;BME280;41754;51.498;7.540;2023-04-05T01:59:59;101071.63;;;1.32;59.79
16190;BME280;41754;51.498;7.540;2023-04-05T02:02:28;101072.56;;;1.26;60.39
16190;BME280;41754;51.498;7.540;2023-04-05T02:04:56;101066.09;;;1.27;60.68
16190;BME280;41754;51.498;7.540;2023-04-05T02:07:24;101069.28;;;1.24;60.69
16190;BME280;41754;51.498;7.540;2023-04-05T02:09:52;101060.19;;;1.30;60.49
16190;BME280;41754;51.498;7.540;2023-04-05T02:12:20;101060.66;;;1.27;60.29
16190;BME280;41754;51.498;7.540;2023-04-05T02:14:49;101066.47;;;1.01;61.53
16190;BME280;41754;51.498;7.540;2023-04-05T02:17:18;101061.81;;;0.90;62.35
16190;BME280;41754;51.498;7.540;2023-04-05T02:19:48;101062.31;;;0.98;62.09
16190;BME280;41754;51.498;7.540;2023-04-05T02:22:18;101061.56;;;0.91;61.70
16190;BME280;41754;51.498;7.540;2023-04-05T02:24:46;101071.53;;;0.79;61.82
16190;BME280;41754;51.498;7.540;2023-04-05T02:27:14;101062.41;;;0.92;62.24
16190;BME280;41754;51.498;7.540;2023-04-05T02:29:42;101063.00;;;0.94;62.09
16190;BME280;41754;51.498;7.540;2023-04-05T02:32:10;101059.50;;;1.05;61.52
16190;BME280;41754;51.498;7.540;2023-04-05T02:34:38;101059.50;;;1.05;61.85
16190;BME280;41754;51.498;7.540;2023-04-05T02:37:08;101053.91;;;1.18;60.67
16190;BME280;41754;51.498;7.540;2023-04-05T02:39:36;101062.97;;;1.12;60.35
16190;BME280;41754;51.498;7.540;2023-04-05T02:42:04;101053.56;;;1.15;60.31
16190;BME280;41754;51.498;7.540;2023-04-05T02:44:32;101058.09;;;1.02;60.48
16190;BME280;41754;51.498;7.540;2023-04-05T02:47:00;101051.44;;;1.17;60.64
16190;BME280;41754;51.498;7.540;2023-04-05T02:49:31;101053.31;;;0.68;61.51
16190;BME280;41754;51.498;7.540;2023-04-05T02:52:01;101056.69;;;1.00;60.93
16190;BME280;41754;51.498;7.540;2023-04-05T02:54:31;101052.16;;;0.94;60.43
16190;BME280;41754;51.498;7.540;2023-04-05T02:57:01;101059.41;;;0.81;61.51
16190;BME280;41754;51.498;7.540;2023-04-05T02:59:40;101059.19;;;0.65;62.69
16190;BME280;41754;51.498;7.540;2023-04-05T03:02:08;101065.28;;;0.78;62.54
16190;BME280;41754;51.498;7.540;2023-04-05T03:04:37;101053.91;;;0.88;61.60
16190;BME280;41754;51.498;7.540;2023-04-05T03:07:06;101052.78;;;0.77;62.15
16190;BME280;41754;51.498;7.540;2023-04-05T03:09:39;101057.75;;;0.80;62.83
16190;BME280;41754;51.498;7.540;2023-04-05T03:12:08;101056.72;;;0.63;63.00
16190;BME280;41754;51.498;7.540;2023-04-05T03:14:40;101054.44;;;0.78;62.38
16190;BME280;41754;51.498;7.540;2023-04-05T03:17:12;101051.81;;;0.53;62.37
16190;BME280;41754;51.498;7.540;2023-04-05T03:19:44;101051.44;;;0.32;63.95
16190;BME280;41754;51.498;7.540;2023-04-05T03:22:16;101059.25;;;0.58;63.43
16190;BME280;41754;51.498;7.540;2023-04-05T03:24:46;101053.69;;;0.71;62.21
16190;BME280;41754;51.498;7.540;2023-04-05T03:27:16;101047.59;;;0.58;62.93
16190;BME280;41754;51.498;7.540;2023-04-05T03:29:58;101035.13;;;0.75;62.43
16190;BME280;41754;51.498;7.540;2023-04-05T03:32:26;101045.25;;;0.79;61.84
16190;BME280;41754;51.498;7.540;2023-04-05T03:35:01;101041.72;;;0.97;61.10
16190;BME280;41754;51.498;7.540;2023-04-05T03:37:31;101041.94;;;0.59;61.71
16190;BME280;41754;51.498;7.540;2023-04-05T03:40:03;101035.47;;;0.78;61.54
16190;BME280;41754;51.498;7.540;2023-04-05T03:42:33;101045.63;;;0.83;61.44
16190;BME280;41754;51.498;7.540;2023-04-05T03:45:01;101042.41;;;0.56;62.00
16190;BME280;41754;51.498;7.540;2023-04-05T03:47:31;101051.47;;;0.50;62.89
16190;BME280;41754;51.498;7.540;2023-04-05T03:50:03;101042.25;;;0.69;62.40
16190;BME280;41754;51.498;7.540;2023-04-05T03:52:31;101041.00;;;0.53;62.29
16190;BME280;41754;51.498;7.540;2023-04-05T03:54:59;101045.44;;;0.48;62.49
16190;BME280;41754;51.498;7.540;2023-04-05T03:57:32;101042.25;;;0.14;62.73
16190;BME280;41754;51.498;7.540;2023-04-05T04:00:09;101044.28;;;0.19;63.47
16190;BME280;41754;51.498;7.540;2023-04-05T04:02:43;101044.09;;;0.39;62.52
16190;BME280;41754;51.498;7.540;2023-04-05T04:05:16;101034.59;;;0.30;63.60
16190;BME280;41754;51.498;7.540;2023-04-05T04:07:49;101033.16;;;0.27;63.70
16190;BME280;41754;51.498;7.540;2023-04-05T04:10:17;101034.13;;;0.14;63.26
16190;BME280;41754;51.498;7.540;2023-04-05T04:12:51;101029.69;;;0.57;62.20
16190;BME280;41754;51.498;7.540;2023-04-05T04:15:26;101027.06;;;0.32;62.77
16190;BME280;41754;51.498;7.540;2023-04-05T04:18:26;101030.94;;;0.24;63.29
16190;BME280;41754;51.498;7.540;2023-04-05T04:21:19;101033.16;;;0.27;63.66
16190;BME280;41754;51.498;7.540;2023-04-05T04:24:01;101029.63;;;0.27;63.34
16190;BME280;41754;51.498;7.540;2023-04-05T04:26:55;101037.47;;;0.53;62.91
16190;BME280;41754;51.498;7.540;2023-04-05T04:29:42;101033.56;;;0.49;62.67
16190;BME280;41754;51.498;7.540;2023-04-05T04:32:32;101032.44;;;0.38;63.23
16190;BME280;41754;51.498;7.540;2023-04-05T04:35:43;101024.19;;;0.08;64.38
16190;BME280;41754;51.498;7.540;2023-04-05T04:38:18;101033.41;;;0.26;64.14
16190;BME280;41754;51.498;7.540;2023-04-05T04:41:07;101025.72;;;0.41;63.82
16190;BME280;41754;51.498;7.540;2023-04-05T04:43:42;101036.69;;;0.46;63.05
16190;BME280;41754;51.498;7.540;2023-04-05T04:46:47;101036.25;;;0.31;63.69
16190;BME280;41754;51.498;7.540;2023-04-05T04:49:38;101032.81;;;0.23;63.14
16190;BME280;41754;51.498;7.540;2023-04-05T04:52:07;101035.97;;;-0.05;63.81
16190;BME280;41754;51.498;7.540;2023-04-05T04:54:37;101037.44;;;-0.02;63.76
16190;BME280;41754;51.498;7.540;2023-04-05T04:57:08;101037.69;;;-0.10;64.12
16190;BME280;41754;51.498;7.540;2023-04-05T04:59:36;101037.84;;;-0.05;64.62
16190;BME280;41754;51.498;7.540;2023-04-05T05:02:07;101027.69;;;0.15;64.01
16190;BME280;41754;51.498;7.540;2023-04-05T05:04:36;101028.22;;;0.42;63.41
16190;BME280;41754;51.498;7.540;2023-04-05T05:07:07;101029.94;;;0.55;62.91
16190;BME280;41754;51.498;7.540;2023-04-05T05:09:36;101023.16;;;0.28;63.08
16190;BME280;41754;51.498;7.540;2023-04-05T05:12:04;101026.75;;;0.21;63.35
16190;BME280;41754;51.498;7.540;2023-04-05T05:14:32;101022.09;;;0.65;62.23
16190;BME280;41754;51.498;7.540;2023-04-05T05:17:00;101035.34;;;0.73;62.20
16190;BME280;41754;51.498;7.540;2023-04-05T05:19:30;101034.75;;;0.53;62.37
16190;BME280;41754;51.498;7.540;2023-04-05T05:21:58;101028.66;;;0.39;62.65
16190;BME280;41754;51.498;7.540;2023-04-05T05:24:26;101037.91;;;0.32;63.05
16190;BME280;41754;51.498;7.540;2023-04-05T05:26:54;101037.63;;;0.40;63.51
16190;BME280;41754;51.498;7.540;2023-04-05T05:29:22;101031.09;;;0.47;63.28
16190;BME280;41754;51.498;7.540;2023-04-05T05:31:50;101030.53;;;0.75;62.78
16190;BME280;41754;51.498;7.540;2023-04-05T05:34:18;101034.75;;;0.53;63.32
16190;BME280;41754;51.498;7.540;2023-04-05T05:36:53;101032.59;;;0.92;62.46
16190;BME280;41754;51.498;7.540;2023-04-05T05:39:21;101026.72;;;0.95;62.32
16190;BME280;41754;51.498;7.540;2023-04-05T05:41:50;101026.59;;;0.71;62.62
16190;BME280;41754;51.498;7.540;2023-04-05T05:44:18;101028.00;;;1.22;61.87
16190;BME280;41754;51.498;7.540;2023-04-05T05:46:46;101030.09;;;1.20;61.45
16190;BME280;41754;51.498;7.540;2023-04-05T05:49:15;101024.69;;;1.20;61.52
16190;BME280;41754;51.498;7.540;2023-04-05T05:51:42;101029.50;;;1.18;61.49
16190;BME280;41754;51.498;7.540;2023-04-05T05:54:12;101026.34;;;1.21;61.87
16190;BME280;41754;51.498;7.540;2023-04-05T05:56:40;101021.78;;;1.22;61.74
16190;BME280;41754;51.498;7.540;2023-04-05T05:59:08;101036.22;;;1.16;61.92
16190;BME280;41754;51.498;7.540;2023-04-05T06:01:36;101037.81;;;1.23;62.21
16190;BME280;41754;51.498;7.540;2023-04-05T06:04:08;101038.50;;;1.72;61.56
16190;BME280;41754;51.498;7.540;2023-04-05T06:06:36;101030.47;;;2.24;59.79
16190;BME280;41754;51.498;7.540;2023-04-05T06:09:04;101025.53;;;2.21;58.62
16190;BME280;41754;51.498;7.540;2023-04-05T06:11:33;101027.63;;;2.42;58.52
16190;BME280;41754;51.498;7.540;2023-04-05T06:14:09;101028.13;;;2.27;57.51
16190;BME280;41754;51.498;7.540;2023-04-05T06:16:36;101029.06;;;2.21;57.20
16190;BME280;41754;51.498;7.540;2023-04-05T06:19:04;101026.94;;;2.35;57.31
16190;BME280;41754;51.498;7.540;2023-04-05T06:21:32;101021.69;;;2.45;56.69
16190;BME280;41754;51.498;7.540;2023-04-05T06:24:00;101030.28;;;2.66;56.40
16190;BME280;41754;51.498;7.540;2023-04-05T06:26:29;101026.63;;;2.72;55.72
16190;BME280;41754;51.498;7.540;2023-04-05T06:28:58;101028.41;;;3.06;54.45
16190;BME280;41754;51.498;7.540;2023-04-05T06:31:30;101029.69;;;3.32;53.92
16190;BME280;41754;51.498;7.540;2023-04-05T06:33:59;101024.53;;;3.64;53.18
16190;BME280;41754;51.498;7.540;2023-04-05T06:36:29;101023.53;;;3.37;53.34
16190;BME280;41754;51.498;7.540;2023-04-05T06:38:57;101023.22;;;3.67;52.88
16190;BME280;41754;51.498;7.540;2023-04-05T06:41:25;101019.97;;;4.03;51.92
16190;BME280;41754;51.498;7.540;2023-04-05T06:43:53;101028.66;;;3.67;51.79
16190;BME280;41754;51.498;7.540;2023-04-05T06:46:23;101018.25;;;3.81;51.28
16190;BME280;41754;51.498;7.540;2023-04-05T06:48:52;101022.88;;;3.80;50.91
16190;BME280;41754;51.498;7.540;2023-04-05T06:51:20;101014.75;;;4.57;50.01
16190;BME280;41754;51.498;7.540;2023-04-05T06:53:48;101015.22;;;4.54;49.93
16190;BME280;41754;51.498;7.540;2023-04-05T06:56:16;101017.72;;;5.05;48.66
16190;BME280;41754;51.498;7.540;2023-04-05T06:58:44;101015.25;;;4.76;48.16
16190;BME280;41754;51.498;7.540;2023-04-05T07:01:12;101013.53;;;4.48;49.39
16190;BME280;41754;51.498;7.540;2023-04-05T07:03:42;101013.59;;;4.75;49.38
16190;BME280;41754;51.498;7.540;2023-04-05T07:06:09;101014.22;;;5.31;48.10
16190;BME280;41754;51.498;7.540;2023-04-05T07:08:38;101004.31;;;4.98;47.27
16190;BME280;41754;51.498;7.540;2023-04-05T07:11:06;101009.53;;;5.05;47.55
16190;BME280;41754;51.498;7.540;2023-04-05T07:13:34;101000.75;;;5.51;46.89
16190;BME280;41754;51.498;7.540;2023-04-05T07:16:02;101014.63;;;5.77;46.57
16190;BME280;41754;51.498;7.540;2023-04-05T07:18:30;101007.84;;;5.47;46.40
16190;BME280;41754;51.498;7.540;2023-04-05T07:20:59;101004.56;;;5.82;46.28
16190;BME280;41754;51.498;7.540;2023-04-05T07:23:27;101006.00;;;6.37;44.89
16190;BME280;41754;51.498;7.540;2023-04-05T07:25:59;101006.88;;;6.43;44.36
16190;BME280;41754;51.498;7.540;2023-04-05T07:28:30;101005.06;;;5.74;44.93
16190;BME280;41754;51.498;7.540;2023-04-05T07:30:59;101005.41;;;5.83;44.95
16190;BME280;41754;51.498;7.540;2023-04-05T07:33:27;100999.72;;;6.42;43.98
16190;BME280;41754;51.498;7.540;2023-04-05T07:35:55;101002.38;;;6.27;45.35
16190;BME280;41754;51.498;7.540;2023-04-05T07:38:25;101003.16;;;6.69;44.26
16190;BME280;41754;51.498;7.540;2023-04-05T07:40:55;101004.88;;;7.01;43.13
16190;BME280;41754;51.498;7.540;2023-04-05T07:43:23;101002.25;;;7.62;41.81
16190;BME280;41754;51.498;7.540;2023-04-05T07:45:51;101004.91;;;7.06;42.29
16190;BME280;41754;51.498;7.540;2023-04-05T07:48:20;101002.78;;;7.28;42.17
16190;BME280;41754;51.498;7.540;2023-04-05T07:50:48;101000.06;;;7.44;40.87
16190;BME280;41754;51.498;7.540;2023-04-05T07:53:18;100994.31;;;7.81;40.56
16190;BME280;41754;51.498;7.540;2023-04-05T07:55:48;100995.13;;;7.97;39.58
16190;BME280;41754;51.498;7.540;2023-04-05T07:58:17;100992.28;;;8.37;39.18
16190;BME280;41754;51.498;7.540;2023-04-05T08:00:45;100988.47;;;8.28;38.18
16190;BME280;41754;51.498;7.540;2023-04-05T08:03:13;100996.19;;;8.11;37.57
16190;BME280;41754;51.498;7.540;2023-04-05T08:05:41;100986.72;;;8.53;36.63
16190;BME280;41754;51.498;7.540;2023-04-05T08:08:09;100984.59;;;8.44;36.95
16190;BME280;41754;51.498;7.540;2023-04-05T08:10:37;100995.38;;;8.90;37.08
16190;BME280;41754;51.498;7.540;2023-04-05T08:13:08;100992.19;;;8.68;36.70
16190;BME280;41754;51.498;7.540;2023-04-05T08:15:36;100992.56;;;9.05;35.70
16190;BME280;41754;51.498;7.540;2023-04-05T08:18:04;100990.44;;;8.87;34.98
16190;BME280;41754;51.498;7.540;2023-04-05T08:20:32;100987.31;;;8.39;34.67
16190;BME280;41754;51.498;7.540;2023-04-05T08:23:05;100988.47;;;8.98;35.70
16190;BME280;41754;51.498;7.540;2023-04-05T08:25:33;100992.19;;;8.68;36.34
16190;BME280;41754;51.498;7.540;2023-04-05T08:28:01;100988.03;;;8.65;34.84
16190;BME280;41754;51.498;7.540;2023-04-05T08:30:30;100985.97;;;9.07;33.94
16190;BME280;41754;51.498;7.540;2023-04-05T08:32:58;100976.31;;;9.53;32.93
16190;BME280;41754;51.498;7.540;2023-04-05T08:35:26;100976.03;;;9.16;33.56
16190;BME280;41754;51.498;7.540;2023-04-05T08:37:54;100973.75;;;9.28;32.98
16190;BME280;41754;51.498;7.540;2023-04-05T08:40:25;100968.31;;;8.63;32.71
16190;BME280;41754;51.498;7.540;2023-04-05T08:43:05;100969.41;;;9.56;31.70
16190;BME280;41754;51.498;7.540;2023-04-05T08:45:42;100971.94;;;9.47;30.36
16190;BME280;41754;51.498;7.540;2023-04-05T08:48:11;100966.22;;;8.99;31.42
16190;BME280;41754;51.498;7.540;2023-04-05T08:50:38;100971.88;;;9.57;31.66
16190;BME280;41754;51.498;7.540;2023-04-05T08:53:07;100971.84;;;8.79;34.55
16190;BME280;41754;51.498;7.540;2023-04-05T08:55:36;100976.78;;;8.72;33.85
16190;BME280;41754;51.498;7.540;2023-04-05T08:58:12;100979.03;;;8.60;32.13
16190;BME280;41754;51.498;7.540;2023-04-05T09:00:41;100966.28;;;8.94;31.79
16190;BME280;41754;51.498;7.540;2023-04-05T09:03:13;100970.53;;;8.61;32.12
16190;BME280;41754;51.498;7.540;2023-04-05T09:05:44;100968.50;;;8.87;32.13
16190;BME280;41754;51.498;7.540;2023-04-05T09:08:12;100963.66;;;10.10;31.50
16190;BME280;41754;51.498;7.540;2023-04-05T09:10:41;100960.31;;;8.72;33.32
16190;BME280;41754;51.498;7.540;2023-04-05T09:13:09;100968.81;;;9.25;32.77
16190;BME280;41754;51.498;7.540;2023-04-05T09:15:37;100960.50;;;8.96;33.49
16190;BME280;41754;51.498;7.540;2023-04-05T09:18:07;100968.28;;;9.23;32.33
16190;BME280;41754;51.498;7.540;2023-04-05T09:20:55;100962.94;;;9.71;32.17
16190;BME280;41754;51.498;7.540;2023-04-05T09:23:23;100971.00;;;10.20;31.85
16190;BME280;41754;51.498;7.540;2023-04-05T09:25:51;100964.91;;;10.47;29.75
16190;BME280;41754;51.498;7.540;2023-04-05T09:28:19;100964.44;;;9.58;30.84
16190;BME280;41754;51.498;7.540;2023-04-05T09:30:47;100965.63;;;9.47;30.76
16190;BME280;41754;51.498;7.540;2023-04-05T09:33:19;100962.81;;;9.86;31.76
16190;BME280;41754;51.498;7.540;2023-04-05T09:35:48;100965.28;;;10.11;31.10
16190;BME280;41754;51.498;7.540;2023-04-05T09:38:19;100959.50;;;10.42;31.39
16190;BME280;41754;51.498;7.540;2023-04-05T09:41:08;100950.13;;;10.43;30.04
16190;BME280;41754;51.498;7.540;2023-04-05T09:43:37;100954.41;;;10.01;30.87
16190;BME280;41754;51.498;7.540;2023-04-05T09:46:06;100958.31;;;9.95;32.40
16190;BME280;41754;51.498;7.540;2023-04-05T09:48:48;100957.06;;;10.59;29.07
16190;BME280;41754;51.498;7.540;2023-04-05T09:51:17;100958.94;;;9.87;29.81
16190;BME280;41754;51.498;7.540;2023-04-05T09:53:58;100961.56;;;10.50;29.33
16190;BME280;41754;51.498;7.540;2023-04-05T09:56:28;100959.41;;;10.90;29.04
16190;BME280;41754;51.498;7.540;2023-04-05T09:59:00;100955.94;;;10.60;30.93
16190;BME280;41754;51.498;7.540;2023-04-05T10:01:30;100952.44;;;10.07;28.43
16190;BME280;41754;51.498;7.540;2023-04-05T10:03:59;100946.91;;;10.36;29.73
16190;BME280;41754;51.498;7.540;2023-04-05T10:06:36;100948.91;;;10.73;29.17
16190;BME280;41754;51.498;7.540;2023-04-05T10:09:07;100945.06;;;11.63;27.72
16190;BME280;41754;51.498;7.540;2023-04-05T10:11:36;100939.91;;;11.05;28.27
16190;BME280;41754;51.498;7.540;2023-04-05T10:14:05;100942.59;;;12.08;26.86
16190;BME280;41754;51.498;7.540;2023-04-05T10:16:37;100939.63;;;11.06;27.51
16190;BME280;41754;51.498;7.540;2023-04-05T10:19:14;100933.91;;;11.03;27.95
16190;BME280;41754;51.498;7.540;2023-04-05T10:21:43;100936.88;;;11.58;28.10
16190;BME280;41754;51.498;7.540;2023-04-05T10:24:21;100929.59;;;11.81;27.25
16190;BME280;41754;51.498;7.540;2023-04-05T10:27:01;100924.22;;;12.44;27.31
16190;BME280;41754;51.498;7.540;2023-04-05T10:29:37;100921.22;;;11.86;29.38
16190;BME280;41754;51.498;7.540;2023-04-05T10:32:14;100919.91;;;11.51;28.36
16190;BME280;41754;51.498;7.540;2023-04-05T10:34:52;100919.47;;;12.58;28.41
16190;BME280;41754;51.498;7.540;2023-04-05T10:37:35;100911.53;;;12.30;27.33
16190;BME280;41754;51.498;7.540;2023-04-05T10:40:08;100915.28;;;11.65;27.63
16190;BME280;41754;51.498;7.540;2023-04-05T10:42:40;100918.38;;;12.18;25.95
16190;BME280;41754;51.498;7.540;2023-04-05T10:45:11;100910.59;;;12.34;25.22
16190;BME280;41754;51.498;7.540;2023-04-05T10:47:46;100909.38;;;12.13;26.98
16190;BME280;41754;51.498;7.540;2023-04-05T10:50:21;100908.16;;;12.33;29.86
16190;BME280;41754;51.498;7.540;2023-04-05T10:52:50;100906.19;;;14.17;25.91
16190;BME280;41754;51.498;7.540;2023-04-05T10:55:18;100910.16;;;15.89;23.07
16190;BME280;41754;51.498;7.540;2023-04-05T10:57:47;100907.63;;;15.49;23.03
16190;BME280;41754;51.498;7.540;2023-04-05T11:00:17;100893.94;;;17.09;23.33
16190;BME280;41754;51.498;7.540;2023-04-05T11:02:46;100899.75;;;16.45;22.33
16190;BME280;41754;51.498;7.540;2023-04-05T11:05:31;100898.69;;;17.63;21.92
16190;BME280;41754;51.498;7.540;2023-04-05T11:08:04;100895.72;;;16.72;22.28
16190;BME280;41754;51.498;7.540;2023-04-05T11:10:37;100888.53;;;18.16;21.76
16190;BME280;41754;51.498;7.540;2023-04-05T11:13:07;100885.88;;;18.19;21.56
16190;BME280;41754;51.498;7.540;2023-04-05T11:15:36;100890.22;;;16.84;22.11
16190;BME280;41754;51.498;7.540;2023-04-05T11:18:07;100890.03;;;17.43;21.97
16190;BME280;41754;51.498;7.540;2023-04-05T11:20:46;100881.16;;;17.50;22.20
16190;BME280;41754;51.498;7.540;2023-04-05T11:23:18;100882.03;;;17.42;20.58
16190;BME280;41754;51.498;7.540;2023-04-05T11:25:50;100888.13;;;17.68;22.61
16190;BME280;41754;51.498;7.540;2023-04-05T11:28:27;100877.47;;;18.80;18.04
16190;BME280;41754;51.498;7.540;2023-04-05T11:30:56;100874.63;;;19.92;16.97
16190;BME280;41754;51.498;7.540;2023-04-05T11:33:39;100872.56;;;20.21;16.90
16190;BME280;41754;51.498;7.540;2023-04-05T11:36:36;100868.19;;;21.09;16.41
16190;BME280;41754;51.498;7.540;2023-04-05T11:39:26;100871.22;;;18.71;19.70
16190;BME280;41754;51.498;7.540;2023-04-05T11:41:58;100861.50;;;19.33;17.86
16190;BME280;41754;51.498;7.540;2023-04-05T11:44:27;100863.88;;;19.78;18.92
16190;BME280;41754;51.498;7.540;2023-04-05T11:46:55;100854.63;;;20.22;17.30
16190;BME280;41754;51.498;7.540;2023-04-05T11:49:24;100850.63;;;20.93;15.59
16190;BME280;41754;51.498;7.540;2023-04-05T11:51:53;100855.63;;;21.84;14.69
16190;BME280;41754;51.498;7.540;2023-04-05T11:54:28;100851.44;;;21.74;15.29
16190;BME280;41754;51.498;7.540;2023-04-05T11:56:56;100843.66;;;22.10;14.83
16190;BME280;41754;51.498;7.540;2023-04-05T11:59:29;100854.47;;;19.39;18.39
16190;BME280;41754;51.498;7.540;2023-04-05T12:01:59;100835.41;;;19.57;15.93
16190;BME280;41754;51.498;7.540;2023-04-05T12:04:27;100839.47;;;22.23;16.59
16190;BME280;41754;51.498;7.540;2023-04-05T12:07:14;100836.44;;;21.63;14.80
16190;BME280;41754;51.498;7.540;2023-04-05T12:09:59;100838.44;;;22.65;15.20
16190;BME280;41754;51.498;7.540;2023-04-05T12:12:32;100835.41;;;24.29;14.90
16190;BME280;41754;51.498;7.540;2023-04-05T12:15:01;100830.84;;;24.76;13.76
16190;BME280;41754;51.498;7.540;2023-04-05T12:17:43;100829.25;;;22.94;13.35
16190;BME280;41754;51.498;7.540;2023-04-05T12:20:12;100831.69;;;22.39;14.31
16190;BME280;41754;51.498;7.540;2023-04-05T12:22:43;100823.28;;;22.39;15.43
16190;BME280;41754;51.498;7.540;2023-04-05T12:25:12;100814.22;;;21.51;15.49
16190;BME280;41754;51.498;7.540;2023-04-05T12:27:40;100811.25;;;21.01;14.79
16190;BME280;41754;51.498;7.540;2023-04-05T12:30:12;100812.72;;;22.29;14.41
16190;BME280;41754;51.498;7.540;2023-04-05T12:32:44;100810.28;;;23.18;14.42
16190;BME280;41754;51.498;7.540;2023-04-05T12:35:15;100804.53;;;25.37;13.18
16190;BME280;41754;51.498;7.540;2023-04-05T12:37:45;100804.69;;;22.84;14.09
16190;BME280;41754;51.498;7.540;2023-04-05T12:40:18;100813.66;;;23.34;15.88
16190;BME280;41754;51.498;7.540;2023-04-05T12:42:46;100797.97;;;24.94;13.06
16190;BME280;41754;51.498;7.540;2023-04-05T12:45:14;100816.06;;;24.20;14.73
16190;BME280;41754;51.498;7.540;2023-04-05T12:47:50;100802.81;;;24.25;15.46
16190;BME280;41754;51.498;7.540;2023-04-05T12:50:19;100807.31;;;24.40;13.57
16190;BME280;41754;51.498;7.540;2023-04-05T12:52:57;100801.34;;;26.07;12.79
16190;BME280;41754;51.498;7.540;2023-04-05T12:55:26;100793.25;;;25.37;12.65
16190;BME280;41754;51.498;7.540;2023-04-05T12:57:56;100786.44;;;25.67;13.01
16190;BME280;41754;51.498;7.540;2023-04-05T13:00:27;100778.03;;;27.15;10.63
16190;BME280;41754;51.498;7.540;2023-04-05T13:02:56;100781.66;;;24.52;14.12
16190;BME280;41754;51.498;7.540;2023-04-05T13:05:25;100788.47;;;24.44;13.68
16190;BME280;41754;51.498;7.540;2023-04-05T13:07:53;100785.31;;;23.94;13.52
16190;BME280;41754;51.498;7.540;2023-04-05T13:10:23;100784.16;;;23.51;13.83
16190;BME280;41754;51.498;7.540;2023-04-05T13:12:52;100779.38;;;24.75;12.57
16190;BME280;41754;51.498;7.540;2023-04-05T13:15:20;100777.72;;;23.98;13.52
16190;BME280;41754;51.498;7.540;2023-04-05T13:17:48;100776.34;;;25.52;11.94
16190;BME280;41754;51.498;7.540;2023-04-05T13:20:18;100774.38;;;25.42;12.68